sensor_id;sensor_type;location;lat;lon;timestamp;temperature;humidity
21625;DHT22;10974;51.034;3.744;2022-12-20T04:16:29;11.60;99.90
21625;DHT22;10974;51.034;3.744;2022-12-20T04:18:54;11.70;99.90
21625;DHT22;10974;51.034;3.744;2022-12-20T04:21:28;11.80;99.90
21625;DHT22;10974;51.034;3.744;2022-12-20T04:23:55;11.70;99.90
21625;DHT22;10974;51.034;3.744;2022-12-20T04:26:21;11.70;99.90
21625;DHT22;10974;51.034;3.744;2022-12-20T04:28:46;11.70;99.90
21625;DHT22;10974;51.034;3.744;2022-12-20T04:31:12;11.70;99.90
21625;DHT22;10974;51.034;3.744;2022-12-20T04:33:38;11.60;99.90
21625;DHT22;10974;51.034;3.744;2022-12-20T04:36:04;11.80;99.90
21625;DHT22;10974;51.034;3.744;2022-12-20T04:38:30;11.80;99.90
21625;DHT22;10974;51.034;3.744;2022-12-20T04:40:56;11.90;99.90
21625;DHT22;10974;51.034;3.744;2022-12-20T04:43:22;11.90;99.90
21625;DHT22;10974;51.034;3.744;2022-12-20T04:45:50;11.80;99.90
21625;DHT22;10974;51.034;3.744;2022-12-20T04:48:18;11.80;99.90
21625;DHT22;10974;51.034;3.744;2022-12-20T04:50:47;11.80;99.90
21625;DHT22;10974;51.034;3.744;2022-12-20T04:53:14;11.70;99.90
21625;DHT22;10974;51.034;3.744;2022-12-20T04:55:59;11.70;99.90
21625;DHT22;10974;51.034;3.744;2022-12-20T04:58:25;11.80;99.90
21625;DHT22;10974;51.034;3.744;2022-12-20T05:00:50;11.80;99.90
21625;DHT22;10974;51.034;3.744;2022-12-20T05:03:21;11.70;99.90
21625;DHT22;10974;51.034;3.744;2022-12-20T05:05:47;11.70;99.90
21625;DHT22;10974;51.034;3.744;2022-12-20T05:08:12;11.70;99.90
21625;DHT22;10974;51.034;3.744;2022-12-20T05:10:39;11.70;99.90
21625;DHT22;10974;51.034;3.744;2022-12-20T05:13:04;11.80;99.90
21625;DHT22;10974;51.034;3.744;2022-12-20T05:15:30;11.80;99.90
21625;DHT22;10974;51.034;3.744;2022-12-20T05:17:56;11.80;99.90
21625;DHT22;10974;51.034;3.744;2022-12-20T05:20:28;11.90;99.90
21625;DHT22;10974;51.034;3.744;2022-12-20T05:22:53;11.90;99.90
21625;DHT22;10974;51.034;3.744;2022-12-20T05:25:44;11.90;99.90
21625;DHT22;10974;51.034;3.744;2022-12-20T05:28:28;11.80;99.90
21625;DHT22;10974;51.034;3.744;2022-12-20T05:30:53;11.80;99.90
21625;DHT22;10974;51.034;3.744;2022-12-20T05:33:19;11.80;99.90
21625;DHT22;10974;51.034;3.744;2022-12-20T05:35:45;11.90;99.90
21625;DHT22;10974;51.034;3.744;2022-12-20T05:38:10;11.90;99.90
21625;DHT22;10974;51.034;3.744;2022-12-20T05:40:36;12.00;99.90
21625;DHT22;10974;51.034;3.744;2022-12-20T05:43:03;12.00;99.90
21625;DHT22;10974;51.034;3.744;2022-12-20T05:45:29;12.10;99.90
21625;DHT22;10974;51.034;3.744;2022-12-20T05:47:54;12.20;99.90
21625;DHT22;10974;51.034;3.744;2022-12-20T05:50:20;12.10;99.90
21625;DHT22;10974;51.034;3.744;2022-12-20T05:52:46;12.10;99.90
21625;DHT22;10974;51.034;3.744;2022-12-20T05:55:12;12.20;99.90
21625;DHT22;10974;51.034;3.744;2022-12-20T05:57:38;12.20;99.90
21625;DHT22;10974;51.034;3.744;2022-12-20T06:00:05;12.20;99.90
21625;DHT22;10974;51.034;3.744;2022-12-20T06:02:30;12.10;99.90
21625;DHT22;10974;51.034;3.744;2022-12-20T06:04:56;12.10;99.90
21625;DHT22;10974;51.034;3.744;2022-12-20T06:07:23;12.00;99.90
21625;DHT22;10974;51.034;3.744;2022-12-20T06:09:49;12.10;99.90
21625;DHT22;10974;51.034;3.744;2022-12-20T06:12:15;12.10;99.90
21625;DHT22;10974;51.034;3.744;2022-12-20T06:14:41;12.10;99.90
21625;DHT22;10974;51.034;3.744;2022-12-20T06:17:06;12.10;99.90
21625;DHT22;10974;51.034;3.744;2022-12-20T06:19:32;12.10;99.90
21625;DHT22;10974;51.034;3.744;2022-12-20T06:21:58;12.10;99.90
21625;DHT22;10974;51.034;3.744;2022-12-20T06:24:23;12.10;99.90
21625;DHT22;10974;51.034;3.744;2022-12-20T06:26:52;12.10;99.90
21625;DHT22;10974;51.034;3.744;2022-12-20T06:29:18;12.20;99.90
21625;DHT22;10974;51.034;3.744;2022-12-20T06:31:46;12.20;99.90
21625;DHT22;10974;51.034;3.744;2022-12-20T06:34:12;12.20;99.90
21625;DHT22;10974;51.034;3.744;2022-12-20T06:36:38;12.20;99.90
21625;DHT22;10974;51.034;3.744;2022-12-20T06:39:04;12.00;99.90
21625;DHT22;10974;51.034;3.744;2022-12-20T06:41:29;12.00;99.90
21625;DHT22;10974;51.034;3.744;2022-12-20T06:43:55;11.90;99.90
21625;DHT22;10974;51.034;3.744;2022-12-20T06:46:21;11.90;99.90
21625;DHT22;10974;51.034;3.744;2022-12-20T06:48:46;12.00;99.90
21625;DHT22;10974;51.034;3.744;2022-12-20T06:51:12;11.90;99.90
21625;DHT22;10974;51.034;3.744;2022-12-20T06:53:38;12.00;99.90
21625;DHT22;10974;51.034;3.744;2022-12-20T06:56:04;11.90;99.90
21625;DHT22;10974;51.034;3.744;2022-12-20T06:58:29;11.80;99.90
21625;DHT22;10974;51.034;3.744;2022-12-20T07:00:55;11.90;99.90
21625;DHT22;10974;51.034;3.744;2022-12-20T07:03:21;11.80;99.90
21625;DHT22;10974;51.034;3.744;2022-12-20T07:05:53;11.70;99.90
21625;DHT22;10974;51.034;3.744;2022-12-20T07:08:20;11.60;99.90
21625;DHT22;10974;51.034;3.744;2022-12-20T07:10:46;11.50;99.90
21625;DHT22;10974;51.034;3.744;2022-12-20T07:13:12;11.40;99.90
21625;DHT22;10974;51.034;3.744;2022-12-20T07:15:38;11.30;99.90
21625;DHT22;10974;51.034;3.744;2022-12-20T07:18:03;11.20;99.90
21625;DHT22;10974;51.034;3.744;2022-12-20T07:20:29;11.10;99.90
21625;DHT22;10974;51.034;3.744;2022-12-20T07:22:55;11.00;99.90
21625;DHT22;10974;51.034;3.744;2022-12-20T07:25:21;10.90;99.90
21625;DHT22;10974;51.034;3.744;2022-12-20T07:27:48;10.90;99.90
21625;DHT22;10974;51.034;3.744;2022-12-20T07:30:17;10.90;99.90
21625;DHT22;10974;51.034;3.744;2022-12-20T07:32:43;10.80;99.90
21625;DHT22;10974;51.034;3.744;2022-12-20T07:35:11;10.80;99.90
21625;DHT22;10974;51.034;3.744;2022-12-20T07:37:36;10.70;99.90
21625;DHT22;10974;51.034;3.744;2022-12-20T07:40:03;10.70;99.90
21625;DHT22;10974;51.034;3.744;2022-12-20T07:42:29;10.70;99.90
21625;DHT22;10974;51.034;3.744;2022-12-20T07:44:55;10.60;99.90
21625;DHT22;10974;51.034;3.744;2022-12-20T07:47:21;10.60;99.90
21625;DHT22;10974;51.034;3.744;2022-12-20T07:49:47;10.50;99.90
21625;DHT22;10974;51.034;3.744;2022-12-20T07:52:15;10.50;99.90
21625;DHT22;10974;51.034;3.744;2022-12-20T07:54:46;10.50;99.90
21625;DHT22;10974;51.034;3.744;2022-12-20T07:57:21;10.50;99.90
21625;DHT22;10974;51.034;3.744;2022-12-20T07:59:51;10.40;99.90
21625;DHT22;10974;51.034;3.744;2022-12-20T08:02:21;10.60;99.90
21625;DHT22;10974;51.034;3.744;2022-12-20T08:04:50;10.40;99.90
21625;DHT22;10974;51.034;3.744;2022-12-20T08:07:16;10.40;99.90
21625;DHT22;10974;51.034;3.744;2022-12-20T08:09:43;10.40;99.90
21625;DHT22;10974;51.034;3.744;2022-12-20T08:12:12;10.40;99.90
21625;DHT22;10974;51.034;3.744;2022-12-20T08:14:38;10.30;99.90
21625;DHT22;10974;51.034;3.744;2022-12-20T08:17:04;10.40;99.90
21625;DHT22;10974;51.034;3.744;2022-12-20T08:19:30;10.40;99.90
21625;DHT22;10974;51.034;3.744;2022-12-20T08:21:55;10.40;99.90
21625;DHT22;10974;51.034;3.744;2022-12-20T08:24:21;10.50;99.90
21625;DHT22;10974;51.034;3.744;2022-12-20T08:26:47;10.50;99.90
21625;DHT22;10974;51.034;3.744;2022-12-20T08:29:12;10.50;99.90
21625;DHT22;10974;51.034;3.744;2022-12-20T08:31:39;10.50;99.90
21625;DHT22;10974;51.034;3.744;2022-12-20T08:34:06;10.50;99.90
21625;DHT22;10974;51.034;3.744;2022-12-20T08:36:31;10.60;99.90
21625;DHT22;10974;51.034;3.744;2022-12-20T08:38:57;10.60;99.90
21625;DHT22;10974;51.034;3.744;2022-12-20T08:41:23;10.60;99.90
21625;DHT22;10974;51.034;3.744;2022-12-20T08:43:49;10.60;99.90
21625;DHT22;10974;51.034;3.744;2022-12-20T08:46:15;10.60;99.90
21625;DHT22;10974;51.034;3.744;2022-12-20T08:48:40;10.60;99.90
21625;DHT22;10974;51.034;3.744;2022-12-20T08:51:08;10.70;99.90
21625;DHT22;10974;51.034;3.744;2022-12-20T08:53:35;10.70;99.90
21625;DHT22;10974;51.034;3.744;2022-12-20T08:58:33;10.80;99.90
21625;DHT22;10974;51.034;3.744;2022-12-20T09:00:59;10.80;99.90
21625;DHT22;10974;51.034;3.744;2022-12-20T09:03:25;10.80;99.90
21625;DHT22;10974;51.034;3.744;2022-12-20T09:05:52;10.70;99.90
21625;DHT22;10974;51.034;3.744;2022-12-20T09:08:17;10.70;99.90
21625;DHT22;10974;51.034;3.744;2022-12-20T09:10:43;10.70;99.90
21625;DHT22;10974;51.034;3.744;2022-12-20T09:13:10;10.70;99.90
21625;DHT22;10974;51.034;3.744;2022-12-20T09:15:35;10.70;99.90
21625;DHT22;10974;51.034;3.744;2022-12-20T09:18:02;10.70;99.90
21625;DHT22;10974;51.034;3.744;2022-12-20T09:20:28;10.70;99.90
21625;DHT22;10974;51.034;3.744;2022-12-20T09:22:54;10.70;99.90
21625;DHT22;10974;51.034;3.744;2022-12-20T09:25:19;10.70;99.90
21625;DHT22;10974;51.034;3.744;2022-12-20T09:27:45;10.60;99.90
21625;DHT22;10974;51.034;3.744;2022-12-20T09:30:11;10.70;99.90
21625;DHT22;10974;51.034;3.744;2022-12-20T09:32:37;10.60;99.90
21625;DHT22;10974;51.034;3.744;2022-12-20T09:35:03;10.60;99.90
21625;DHT22;10974;51.034;3.744;2022-12-20T09:37:30;10.60;99.90
21625;DHT22;10974;51.034;3.744;2022-12-20T09:39:56;10.50;99.90
21625;DHT22;10974;51.034;3.744;2022-12-20T09:42:25;10.50;99.90
21625;DHT22;10974;51.034;3.744;2022-12-20T09:44:51;10.50;99.90
21625;DHT22;10974;51.034;3.744;2022-12-20T09:47:23;10.50;99.90
21625;DHT22;10974;51.034;3.744;2022-12-20T09:49:54;10.50;99.90
21625;DHT22;10974;51.034;3.744;2022-12-20T09:52:46;10.50;99.90
21625;DHT22;10974;51.034;3.744;2022-12-20T09:58:18;10.50;99.90
21625;DHT22;10974;51.034;3.744;2022-12-20T10:00:50;10.50;99.90
21625;DHT22;10974;51.034;3.744;2022-12-20T10:03:24;10.50;99.90
21625;DHT22;10974;51.034;3.744;2022-12-20T10:06:03;10.40;99.90
21625;DHT22;10974;51.034;3.744;2022-12-20T10:08:47;10.40;99.90
21625;DHT22;10974;51.034;3.744;2022-12-20T10:17:41;10.40;99.90
21625;DHT22;10974;51.034;3.744;2022-12-20T10:23:26;10.40;99.90
21625;DHT22;10974;51.034;3.744;2022-12-20T10:25:55;10.40;99.90
21625;DHT22;10974;51.034;3.744;2022-12-20T10:28:33;10.40;99.90
21625;DHT22;10974;51.034;3.744;2022-12-20T10:31:06;10.40;99.90
21625;DHT22;10974;51.034;3.744;2022-12-20T10:33:32;10.30;99.90
21625;DHT22;10974;51.034;3.744;2022-12-20T10:38:49;10.40;99.90
21625;DHT22;10974;51.034;3.744;2022-12-20T10:41:18;10.30;99.90
21625;DHT22;10974;51.034;3.744;2022-12-20T10:43:48;10.40;99.90
21625;DHT22;10974;51.034;3.744;2022-12-20T10:46:14;10.40;99.90
21625;DHT22;10974;51.034;3.744;2022-12-20T10:48:44;10.40;99.90
21625;DHT22;10974;51.034;3.744;2022-12-20T10:56:29;10.40;99.90
21625;DHT22;10974;51.034;3.744;2022-12-20T10:59:20;10.40;99.90
21625;DHT22;10974;51.034;3.744;2022-12-20T11:01:48;10.40;99.90
21625;DHT22;10974;51.034;3.744;2022-12-20T11:04:40;10.50;99.90
21625;DHT22;10974;51.034;3.744;2022-12-20T11:07:27;10.50;99.90
21625;DHT22;10974;51.034;3.744;2022-12-20T11:10:00;10.50;99.90
21625;DHT22;10974;51.034;3.744;2022-12-20T11:12:26;10.40;99.90
21625;DHT22;10974;51.034;3.744;2022-12-20T11:15:08;10.50;99.90
21625;DHT22;10974;51.034;3.744;2022-12-20T11:17:42;10.50;99.90
21625;DHT22;10974;51.034;3.744;2022-12-20T11:20:19;10.50;99.90
21625;DHT22;10974;51.034;3.744;2022-12-20T11:23:19;10.50;99.90
21625;DHT22;10974;51.034;3.744;2022-12-20T11:41:54;10.50;99.90
21625;DHT22;10974;51.034;3.744;2022-12-20T11:58:00;10.40;99.90
21625;DHT22;10974;51.034;3.744;2022-12-20T12:00:28;10.30;99.90
21625;DHT22;10974;51.034;3.744;2022-12-20T12:02:59;10.30;99.90
21625;DHT22;10974;51.034;3.744;2022-12-20T12:08:13;10.30;99.90
21625;DHT22;10974;51.034;3.744;2022-12-20T12:10:54;10.30;99.90
21625;DHT22;10974;51.034;3.744;2022-12-20T12:13:26;10.20;99.90
21625;DHT22;10974;51.034;3.744;2022-12-20T12:15:59;10.20;99.90
21625;DHT22;10974;51.034;3.744;2022-12-20T12:18:31;10.20;99.90
21625;DHT22;10974;51.034;3.744;2022-12-20T12:26:28;10.20;99.90
21625;DHT22;10974;51.034;3.744;2022-12-20T12:29:10;10.10;99.90
21625;DHT22;10974;51.034;3.744;2022-12-20T12:31:48;10.10;99.90
21625;DHT22;10974;51.034;3.744;2022-12-20T12:34:26;10.10;99.90
21625;DHT22;10974;51.034;3.744;2022-12-20T12:42:42;10.00;99.90
21625;DHT22;10974;51.034;3.744;2022-12-20T12:47:52;9.90;99.90
21625;DHT22;10974;51.034;3.744;2022-12-20T12:50:26;9.90;99.90
21625;DHT22;10974;51.034;3.744;2022-12-20T12:52:55;9.90;99.90
21625;DHT22;10974;51.034;3.744;2022-12-20T12:55:42;9.90;99.90
21625;DHT22;10974;51.034;3.744;2022-12-20T13:00:49;9.90;99.90
21625;DHT22;10974;51.034;3.744;2022-12-20T13:03:33;9.80;99.90
21625;DHT22;10974;51.034;3.744;2022-12-20T13:19:50;9.80;99.90
21625;DHT22;10974;51.034;3.744;2022-12-20T13:22:22;9.80;99.90
21625;DHT22;10974;51.034;3.744;2022-12-20T13:24:55;9.70;99.90
21625;DHT22;10974;51.034;3.744;2022-12-20T13:27:40;9.70;99.90
21625;DHT22;10974;51.034;3.744;2022-12-20T13:46:03;9.70;99.90
21625;DHT22;10974;51.034;3.744;2022-12-20T13:48:49;9.70;99.90
21625;DHT22;10974;51.034;3.744;2022-12-20T13:51:26;9.70;99.90
21625;DHT22;10974;51.034;3.744;2022-12-20T13:54:07;9.70;99.90
21625;DHT22;10974;51.034;3.744;2022-12-20T13:56:49;9.70;99.90
21625;DHT22;10974;51.034;3.744;2022-12-20T13:59:30;9.70;99.90
21625;DHT22;10974;51.034;3.744;2022-12-20T14:01:59;9.70;99.90
21625;DHT22;10974;51.034;3.744;2022-12-20T14:04:36;9.60;99.90
21625;DHT22;10974;51.034;3.744;2022-12-20T14:07:03;9.60;99.90
21625;DHT22;10974;51.034;3.744;2022-12-20T14:09:38;9.60;99.90
21625;DHT22;10974;51.034;3.744;2022-12-20T14:12:21;9.60;99.90
21625;DHT22;10974;51.034;3.744;2022-12-20T14:14:49;9.60;99.90
21625;DHT22;10974;51.034;3.744;2022-12-20T14:19:41;9.60;99.90
21625;DHT22;10974;51.034;3.744;2022-12-20T14:22:10;9.60;99.90
21625;DHT22;10974;51.034;3.744;2022-12-20T14:24:39;9.60;99.90
21625;DHT22;10974;51.034;3.744;2022-12-20T14:27:10;9.60;99.90
21625;DHT22;10974;51.034;3.744;2022-12-20T14:29:37;9.60;99.90
21625;DHT22;10974;51.034;3.744;2022-12-20T14:32:04;9.60;99.90
21625;DHT22;10974;51.034;3.744;2022-12-20T14:34:31;9.60;99.90
21625;DHT22;10974;51.034;3.744;2022-12-20T14:42:35;9.60;99.90
21625;DHT22;10974;51.034;3.744;2022-12-20T14:45:25;9.60;99.90
21625;DHT22;10974;51.034;3.744;2022-12-20T14:48:17;9.60;99.90
21625;DHT22;10974;51.034;3.744;2022-12-20T14:50:52;9.60;99.90
21625;DHT22;10974;51.034;3.744;2022-12-20T14:53:23;9.60;99.90
21625;DHT22;10974;51.034;3.744;2022-12-20T14:55:53;9.60;99.90
21625;DHT22;10974;51.034;3.744;2022-12-20T14:58:33;9.50;99.90
21625;DHT22;10974;51.034;3.744;2022-12-20T15:01:00;9.60;99.90
21625;DHT22;10974;51.034;3.744;2022-12-20T15:03:26;9.60;99.90
21625;DHT22;10974;51.034;3.744;2022-12-20T15:05:56;9.60;99.90
21625;DHT22;10974;51.034;3.744;2022-12-20T15:08:26;9.60;99.90
21625;DHT22;10974;51.034;3.744;2022-12-20T15:11:02;9.50;99.90
21625;DHT22;10974;51.034;3.744;2022-12-20T15:13:39;9.50;99.90
21625;DHT22;10974;51.034;3.744;2022-12-20T15:16:15;9.50;99.90
21625;DHT22;10974;51.034;3.744;2022-12-20T15:18:41;9.50;99.90
21625;DHT22;10974;51.034;3.744;2022-12-20T15:21:14;9.50;99.90
21625;DHT22;10974;51.034;3.744;2022-12-20T15:23:51;9.50;99.90
21625;DHT22;10974;51.034;3.744;2022-12-20T15:26:19;9.50;99.90
21625;DHT22;10974;51.034;3.744;2022-12-20T15:28:45;9.50;99.90
21625;DHT22;10974;51.034;3.744;2022-12-20T15:31:12;9.50;99.90
21625;DHT22;10974;51.034;3.744;2022-12-20T15:33:39;9.50;99.90
21625;DHT22;10974;51.034;3.744;2022-12-20T15:36:06;9.50;99.90
21625;DHT22;10974;51.034;3.744;2022-12-20T15:38:37;9.50;99.90
21625;DHT22;10974;51.034;3.744;2022-12-20T15:41:04;9.50;99.90
21625;DHT22;10974;51.034;3.744;2022-12-20T15:43:36;9.50;99.90
21625;DHT22;10974;51.034;3.744;2022-12-20T15:46:03;9.50;99.90
21625;DHT22;10974;51.034;3.744;2022-12-20T15:48:28;9.50;99.90
21625;DHT22;10974;51.034;3.744;2022-12-20T15:50:58;9.50;99.90
21625;DHT22;10974;51.034;3.744;2022-12-20T15:53:30;9.40;99.90
21625;DHT22;10974;51.034;3.744;2022-12-20T15:55:57;9.50;99.90
21625;DHT22;10974;51.034;3.744;2022-12-20T15:58:23;9.50;99.90
21625;DHT22;10974;51.034;3.744;2022-12-20T16:00:52;9.50;99.90
21625;DHT22;10974;51.034;3.744;2022-12-20T16:03:24;9.50;99.90
21625;DHT22;10974;51.034;3.744;2022-12-20T16:05:51;9.50;99.90
21625;DHT22;10974;51.034;3.744;2022-12-20T16:08:17;9.50;99.90
21625;DHT22;10974;51.034;3.744;2022-12-20T16:10:46;9.50;99.90
21625;DHT22;10974;51.034;3.744;2022-12-20T16:13:19;9.50;99.90
21625;DHT22;10974;51.034;3.744;2022-12-20T16:15:45;9.50;99.90
21625;DHT22;10974;51.034;3.744;2022-12-20T16:18:10;9.50;99.90
21625;DHT22;10974;51.034;3.744;2022-12-20T16:20:36;9.50;99.90
21625;DHT22;10974;51.034;3.744;2022-12-20T16:23:03;9.50;99.90
21625;DHT22;10974;51.034;3.744;2022-12-20T16:25:35;9.50;99.90
21625;DHT22;10974;51.034;3.744;2022-12-20T16:28:01;9.40;99.90
21625;DHT22;10974;51.034;3.744;2022-12-20T16:30:27;9.50;99.90
21625;DHT22;10974;51.034;3.744;2022-12-20T16:32:53;9.50;99.90
21625;DHT22;10974;51.034;3.744;2022-12-20T16:35:37;9.50;99.90
21625;DHT22;10974;51.034;3.744;2022-12-20T16:38:03;9.50;99.90
21625;DHT22;10974;51.034;3.744;2022-12-20T16:40:31;9.50;99.90
21625;DHT22;10974;51.034;3.744;2022-12-20T16:42:58;9.50;99.90
21625;DHT22;10974;51.034;3.744;2022-12-20T16:45:27;9.50;99.90
21625;DHT22;10974;51.034;3.744;2022-12-20T16:47:53;9.50;99.90
21625;DHT22;10974;51.034;3.744;2022-12-20T16:50:21;9.50;99.90
21625;DHT22;10974;51.034;3.744;2022-12-20T16:52:47;9.40;99.90
21625;DHT22;10974;51.034;3.744;2022-12-20T16:55:23;9.50;99.90
21625;DHT22;10974;51.034;3.744;2022-12-20T16:57:50;9.50;99.90
21625;DHT22;10974;51.034;3.744;2022-12-20T17:00:19;9.50;99.90
21625;DHT22;10974;51.034;3.744;2022-12-20T17:02:45;9.40;99.90
21625;DHT22;10974;51.034;3.744;2022-12-20T17:05:27;9.40;99.90
21625;DHT22;10974;51.034;3.744;2022-12-20T17:07:53;9.40;99.90
21625;DHT22;10974;51.034;3.744;2022-12-20T17:10:20;9.20;99.90
21625;DHT22;10974;51.034;3.744;2022-12-20T17:12:46;9.20;99.90
21625;DHT22;10974;51.034;3.744;2022-12-20T17:17:44;9.20;99.90
21625;DHT22;10974;51.034;3.744;2022-12-20T17:20:11;9.10;99.90
21625;DHT22;10974;51.034;3.744;2022-12-20T17:22:37;9.10;99.90
21625;DHT22;10974;51.034;3.744;2022-12-20T17:25:03;9.10;99.90
21625;DHT22;10974;51.034;3.744;2022-12-20T17:27:28;9.00;99.90
21625;DHT22;10974;51.034;3.744;2022-12-20T17:29:54;9.10;99.90
21625;DHT22;10974;51.034;3.744;2022-12-20T17:32:22;9.00;99.90
21625;DHT22;10974;51.034;3.744;2022-12-20T17:34:49;9.00;99.90
21625;DHT22;10974;51.034;3.744;2022-12-20T17:37:14;9.00;99.90
21625;DHT22;10974;51.034;3.744;2022-12-20T17:39:42;9.00;99.90
21625;DHT22;10974;51.034;3.744;2022-12-20T17:42:13;9.00;99.90
21625;DHT22;10974;51.034;3.744;2022-12-20T17:44:38;9.00;99.90
21625;DHT22;10974;51.034;3.744;2022-12-20T17:47:04;8.90;99.90
21625;DHT22;10974;51.034;3.744;2022-12-20T17:49:31;8.90;99.90
21625;DHT22;10974;51.034;3.744;2022-12-20T17:51:56;8.90;99.90
21625;DHT22;10974;51.034;3.744;2022-12-20T17:54:24;8.90;99.90
21625;DHT22;10974;51.034;3.744;2022-12-20T17:56:51;8.90;99.90
21625;DHT22;10974;51.034;3.744;2022-12-20T17:59:18;8.80;99.90
21625;DHT22;10974;51.034;3.744;2022-12-20T18:01:45;8.80;99.90
21625;DHT22;10974;51.034;3.744;2022-12-20T18:04:13;8.80;99.90
21625;DHT22;10974;51.034;3.744;2022-12-20T18:06:40;8.80;99.90
21625;DHT22;10974;51.034;3.744;2022-12-20T18:09:18;8.80;99.90
21625;DHT22;10974;51.034;3.744;2022-12-20T18:11:45;8.80;99.90
21625;DHT22;10974;51.034;3.744;2022-12-20T18:14:11;8.80;99.90
21625;DHT22;10974;51.034;3.744;2022-12-20T18:16:37;8.80;99.90
21625;DHT22;10974;51.034;3.744;2022-12-20T18:19:06;8.80;99.90
21625;DHT22;10974;51.034;3.744;2022-12-20T18:21:32;8.70;99.90
21625;DHT22;10974;51.034;3.744;2022-12-20T18:23:58;8.70;99.90
21625;DHT22;10974;51.034;3.744;2022-12-20T18:26:24;8.70;99.90
21625;DHT22;10974;51.034;3.744;2022-12-20T18:28:54;8.70;99.90
21625;DHT22;10974;51.034;3.744;2022-12-20T18:31:22;8.70;99.90
21625;DHT22;10974;51.034;3.744;2022-12-20T18:33:52;8.60;99.90
21625;DHT22;10974;51.034;3.744;2022-12-20T18:36:23;8.60;99.90
21625;DHT22;10974;51.034;3.744;2022-12-20T18:38:50;8.60;99.90
21625;DHT22;10974;51.034;3.744;2022-12-20T18:41:25;8.60;99.90
21625;DHT22;10974;51.034;3.744;2022-12-20T18:43:52;8.60;99.90
21625;DHT22;10974;51.034;3.744;2022-12-20T18:46:20;8.50;99.90
21625;DHT22;10974;51.034;3.744;2022-12-20T18:48:48;8.50;99.90
21625;DHT22;10974;51.034;3.744;2022-12-20T18:51:17;8.50;99.90
21625;DHT22;10974;51.034;3.744;2022-12-20T18:54:05;8.50;99.90
21625;DHT22;10974;51.034;3.744;2022-12-20T18:56:33;8.50;99.90
21625;DHT22;10974;51.034;3.744;2022-12-20T18:59:00;8.50;99.90
21625;DHT22;10974;51.034;3.744;2022-12-20T19:01:28;8.50;99.90
21625;DHT22;10974;51.034;3.744;2022-12-20T19:03:55;8.50;99.90
21625;DHT22;10974;51.034;3.744;2022-12-20T19:06:21;8.40;99.90
21625;DHT22;10974;51.034;3.744;2022-12-20T19:08:48;8.40;99.90
21625;DHT22;10974;51.034;3.744;2022-12-20T19:11:16;8.50;99.90
21625;DHT22;10974;51.034;3.744;2022-12-20T19:13:43;8.40;99.90
21625;DHT22;10974;51.034;3.744;2022-12-20T19:16:14;8.40;99.90
21625;DHT22;10974;51.034;3.744;2022-12-20T19:18:40;8.40;99.90
21625;DHT22;10974;51.034;3.744;2022-12-20T19:21:10;8.40;99.90
21625;DHT22;10974;51.034;3.744;2022-12-20T19:23:37;8.50;99.90
21625;DHT22;10974;51.034;3.744;2022-12-20T19:26:08;8.50;99.90
21625;DHT22;10974;51.034;3.744;2022-12-20T19:28:34;8.60;99.90
21625;DHT22;10974;51.034;3.744;2022-12-20T19:31:21;8.60;99.90
21625;DHT22;10974;51.034;3.744;2022-12-20T19:33:49;8.60;99.90
21625;DHT22;10974;51.034;3.744;2022-12-20T19:36:16;8.60;99.90
21625;DHT22;10974;51.034;3.744;2022-12-20T19:38:47;8.60;99.90
21625;DHT22;10974;51.034;3.744;2022-12-20T19:41:15;8.50;99.90
21625;DHT22;10974;51.034;3.744;2022-12-20T19:43:41;8.50;99.90
21625;DHT22;10974;51.034;3.744;2022-12-20T19:46:07;8.40;99.90
21625;DHT22;10974;51.034;3.744;2022-12-20T19:48:33;8.40;99.90
21625;DHT22;10974;51.034;3.744;2022-12-20T19:51:10;8.40;99.90
21625;DHT22;10974;51.034;3.744;2022-12-20T19:53:37;8.40;99.90
21625;DHT22;10974;51.034;3.744;2022-12-20T19:56:03;8.30;99.90
21625;DHT22;10974;51.034;3.744;2022-12-20T19:58:29;8.70;99.90
21625;DHT22;10974;51.034;3.744;2022-12-20T20:00:55;8.70;99.90
21625;DHT22;10974;51.034;3.744;2022-12-20T20:03:21;8.60;99.90
21625;DHT22;10974;51.034;3.744;2022-12-20T20:05:47;8.40;99.90
21625;DHT22;10974;51.034;3.744;2022-12-20T20:08:13;8.30;99.90
21625;DHT22;10974;51.034;3.744;2022-12-20T20:10:40;8.10;99.90
21625;DHT22;10974;51.034;3.744;2022-12-20T20:13:07;8.00;99.90
21625;DHT22;10974;51.034;3.744;2022-12-20T20:15:33;7.90;99.90
21625;DHT22;10974;51.034;3.744;2022-12-20T20:17:58;7.90;99.90
21625;DHT22;10974;51.034;3.744;2022-12-20T20:20:25;7.90;99.90
21625;DHT22;10974;51.034;3.744;2022-12-20T20:22:50;8.00;99.90
21625;DHT22;10974;51.034;3.744;2022-12-20T20:25:16;7.90;99.90
21625;DHT22;10974;51.034;3.744;2022-12-20T20:27:43;7.80;99.90
21625;DHT22;10974;51.034;3.744;2022-12-20T20:30:09;7.80;99.90
21625;DHT22;10974;51.034;3.744;2022-12-20T20:32:41;7.80;99.90
21625;DHT22;10974;51.034;3.744;2022-12-20T20:35:08;7.80;99.90
21625;DHT22;10974;51.034;3.744;2022-12-20T20:37:36;7.90;99.90
21625;DHT22;10974;51.034;3.744;2022-12-20T20:40:03;7.80;99.90
21625;DHT22;10974;51.034;3.744;2022-12-20T20:42:29;7.80;99.90
21625;DHT22;10974;51.034;3.744;2022-12-20T20:44:54;7.80;99.90
21625;DHT22;10974;51.034;3.744;2022-12-20T20:47:20;7.70;99.90
21625;DHT22;10974;51.034;3.744;2022-12-20T20:49:45;7.80;99.90
21625;DHT22;10974;51.034;3.744;2022-12-20T20:52:11;7.80;99.90
21625;DHT22;10974;51.034;3.744;2022-12-20T20:54:37;7.70;99.90
21625;DHT22;10974;51.034;3.744;2022-12-20T20:57:03;7.80;99.90
21625;DHT22;10974;51.034;3.744;2022-12-20T20:59:29;7.80;99.90
21625;DHT22;10974;51.034;3.744;2022-12-20T21:01:54;7.80;99.90
21625;DHT22;10974;51.034;3.744;2022-12-20T21:04:20;7.70;99.90
21625;DHT22;10974;51.034;3.744;2022-12-20T21:06:46;7.80;99.90
21625;DHT22;10974;51.034;3.744;2022-12-20T21:09:11;7.80;99.90
21625;DHT22;10974;51.034;3.744;2022-12-20T21:11:37;7.80;99.90
21625;DHT22;10974;51.034;3.744;2022-12-20T21:14:03;7.70;99.90
21625;DHT22;10974;51.034;3.744;2022-12-20T21:16:29;7.80;99.90
21625;DHT22;10974;51.034;3.744;2022-12-20T21:18:56;7.80;99.90
21625;DHT22;10974;51.034;3.744;2022-12-20T21:21:23;7.80;99.90
21625;DHT22;10974;51.034;3.744;2022-12-20T21:23:49;7.80;99.90
21625;DHT22;10974;51.034;3.744;2022-12-20T21:26:17;7.80;99.90
21625;DHT22;10974;51.034;3.744;2022-12-20T21:28:43;7.80;99.90
21625;DHT22;10974;51.034;3.744;2022-12-20T21:31:11;7.80;99.90
21625;DHT22;10974;51.034;3.744;2022-12-20T21:33:39;7.80;99.90
21625;DHT22;10974;51.034;3.744;2022-12-20T21:36:07;7.80;99.90
21625;DHT22;10974;51.034;3.744;2022-12-20T21:38:33;7.80;99.90
21625;DHT22;10974;51.034;3.744;2022-12-20T21:41:00;7.70;99.90
21625;DHT22;10974;51.034;3.744;2022-12-20T21:43:26;7.80;99.90
21625;DHT22;10974;51.034;3.744;2022-12-20T21:45:51;7.80;99.90
21625;DHT22;10974;51.034;3.744;2022-12-20T21:48:17;7.80;99.90
21625;DHT22;10974;51.034;3.744;2022-12-20T21:50:44;7.80;99.90
21625;DHT22;10974;51.034;3.744;2022-12-20T21:53:10;7.80;99.90
21625;DHT22;10974;51.034;3.744;2022-12-20T21:55:35;7.80;99.90
21625;DHT22;10974;51.034;3.744;2022-12-20T21:58:01;7.80;99.90